Página principal
METAR-TAF:

METAR-TAF

Aeroportos :

Caracas, Venezuela

Aeroporto Internacional Simón Bolívar

latitude: 10-36N, longitude: 066-59W, altura: 43 m

Observação actual do tempo

O boletim foi feito há 38 minutos, às 14:00 UTC
Vento 3 kt de nor-nordeste
Temperatura 30°C
Humidade 55%
Pressão 1012 hPa
Visibilidade 10 km ou mais
Poucas nuvensa uma altura de 1600 ft

METAR: SVMI 301400Z 02003KT 9999 FEW016 30/20 Q1012

Hora: 10:38 (14:38 UTC)

Previsão

O boletim foi feito há 4 horas e 38 minutos, às 10:00 UTC
Previsão válida de 30 às 12 UTC a 01 às 12 UTC
Vento 3 kt de nor-nordeste
Visibilidade 10 km ou mais
Poucas nuvensa uma altura de 1600 ft
A partir de 30 às 1500 UTC
Vento 10 kt de nordeste
Visibilidade 10 km ou mais
Poucas nuvensa uma altura de 1600 ft
Nuvens dispersasa uma altura de 10000 ft

TAF: SVMI 301000Z 3012/0112 02003KT 9999 FEW016 TX34/18Z TN25/09Z FM301500 05010KT 9999 FEW016 SCT100

Observações e previsões do tempo de mais de 4000 aeroportos (mensagens METAR e TAF).

As estações disponíveis são os pontos amarelos e vermelhos sobre o mapa.

Mova o rato sobre o mapa para ver o nome da estação.

Depois clique no ponto para visualizar as observações e previsões meteorológicas.

Para alterar o mapa : clique nos botões verdes com uma cruz preta para aumentar o zoom; no botão verde com uma pitada de zoom; ou nas setas verdes para mapas adjacentes.


METAR-TAF: